Time;durP1;ratioP1;P1;durP2;ratioP2;P2;SDS_P1;SDS_P2;PMS_P1;PMS_P2;Temp;Humidity;BMP_temperature;BMP_pressure;BME280_temperature;BME280_humidity;BME280_pressure;Samples;Min_cycle;Max_cycle;Signal;HPM_P1;HPM_P2
2023/06/01 00:01:37;;;;;;;7.15;3.58;;;19.10;62.40;;;18.51;50.89;101150.84;5027774;28;20393;-78
2023/06/01 00:04:07;;;;;;;11.52;3.67;;;19.10;62.60;;;18.48;51.06;101159.44;5027434;28;20088;-78
2023/06/01 00:06:34;;;;;;;8.02;3.60;;;19.00;62.90;;;18.42;51.34;101152.31;5031459;28;20037;-78
2023/06/01 00:09:02;;;;;;;10.40;4.30;;;19.00;63.20;;;18.39;51.38;101157.41;5010393;28;20053;-78
2023/06/01 00:11:30;;;;;;;11.00;4.70;;;19.00;63.30;;;18.36;51.71;101158.72;5027216;28;20064;-78
2023/06/01 00:13:58;;;;;;;10.38;4.35;;;18.90;63.60;;;18.32;51.74;101157.56;5028519;28;20038;-78
2023/06/01 00:16:25;;;;;;;10.35;4.38;;;18.90;63.80;;;18.27;52.09;101157.50;5028365;28;20053;-78
2023/06/01 00:18:53;;;;;;;13.07;4.85;;;18.80;64.40;;;18.21;52.42;101155.78;5026974;28;20045;-78
2023/06/01 00:21:20;;;;;;;10.23;4.25;;;18.70;64.90;;;18.17;52.70;101143.81;5029757;28;20044;-78
2023/06/01 00:23:48;;;;;;;13.02;4.28;;;18.70;65.20;;;18.13;52.69;101148.06;5041771;28;20124;-78
2023/06/01 00:26:15;;;;;;;13.82;5.05;;;18.60;65.20;;;18.10;52.80;101154.75;5026831;28;20045;-78
2023/06/01 00:28:48;;;;;;;12.88;5.28;;;18.60;65.40;;;18.07;52.73;101157.16;5012676;28;20080;-78
2023/06/01 00:31:15;;;;;;;12.18;5.25;;;18.60;65.50;;;18.04;52.88;101154.94;5032593;28;20100;-78
2023/06/01 00:33:42;;;;;;;12.10;4.97;;;18.50;65.80;;;18.03;53.03;101156.81;5036694;28;20116;-78
2023/06/01 00:36:10;;;;;;;13.02;5.57;;;18.50;65.70;;;17.92;53.19;101147.72;5014222;28;20145;-78
2023/06/01 00:38:37;;;;;;;12.55;5.53;;;18.50;66.00;;;17.90;53.58;101147.13;5031250;28;20051;-78
2023/06/01 00:41:05;;;;;;;13.35;5.88;;;18.40;66.40;;;17.87;53.61;101147.66;5032299;28;20120;-78
2023/06/01 00:43:32;;;;;;;11.80;5.38;;;18.40;66.40;;;17.84;53.76;101156.22;5013431;28;20053;-78
2023/06/01 00:46:01;;;;;;;10.68;5.38;;;18.40;66.60;;;17.81;53.76;101148.59;5014111;28;20087;-78
2023/06/01 00:48:28;;;;;;;16.48;5.68;;;18.30;66.60;;;17.78;53.59;101149.09;5031750;28;20692;-78
2023/06/01 00:50:56;;;;;;;8.05;5.05;;;18.30;66.60;;;17.78;53.45;101149.09;5009818;28;20077;-78
2023/06/01 00:53:25;;;;;;;9.20;5.20;;;18.30;66.50;;;17.78;53.41;101149.09;5013634;28;20049;-78
2023/06/01 00:55:52;;;;;;;13.90;5.82;;;18.30;66.30;;;17.77;53.45;101150.16;5014120;28;20065;-78
2023/06/01 00:58:19;;;;;;;11.43;5.28;;;18.30;66.40;;;17.76;53.70;101151.19;5013010;28;20144;-78
2023/06/01 01:00:48;;;;;;;10.80;5.13;;;18.30;66.50;;;17.73;53.71;101151.69;5031139;28;20132;-78
2023/06/01 01:03:17;;;;;;;14.65;5.47;;;18.30;66.50;;;17.69;53.65;101154.03;5011446;28;20533;-78
2023/06/01 01:05:44;;;;;;;11.65;5.32;;;18.20;66.50;;;17.68;53.89;101146.19;5027315;28;20061;-78
2023/06/01 01:08:18;;;;;;;10.88;5.30;;;18.20;66.50;;;17.68;53.78;101156.97;5040583;28;20048;-78
2023/06/01 01:10:52;;;;;;;11.45;5.60;;;18.10;66.50;;;17.66;53.85;101153.69;5012101;28;20132;-78
2023/06/01 01:13:27;;;;;;;13.27;6.47;;;18.20;66.60;;;17.59;53.96;101158.41;5010799;28;20053;-77
2023/06/01 01:16:01;;;;;;;14.40;6.20;;;18.10;66.80;;;17.59;54.28;101153.03;5025211;28;20577;-78
2023/06/01 01:18:37;;;;;;;13.68;5.95;;;18.10;66.90;;;17.55;53.94;101158.06;5013083;28;20575;-78
2023/06/01 01:21:21;;;;;;;11.07;6.03;;;18.10;67.00;;;17.51;54.00;101151.50;5012494;28;20073;-78
2023/06/01 01:24:24;;;;;;;11.52;5.97;;;18.10;66.90;;;17.48;54.09;101158.22;5028970;28;20064;-77
2023/06/01 01:27:18;;;;;;;11.40;5.82;;;18.00;67.10;;;17.43;54.61;101147.34;5010239;28;20050;-78
2023/06/01 01:29:48;;;;;;;9.80;5.72;;;18.00;67.20;;;17.38;54.22;101151.81;5013186;28;20041;-78
2023/06/01 01:32:16;;;;;;;15.32;7.38;;;17.90;67.20;;;17.34;54.31;101137.97;5011500;28;20490;-78
2023/06/01 01:34:46;;;;;;;14.30;6.82;;;17.90;67.40;;;17.30;54.48;101146.78;5013027;23;20044;-80
2023/06/01 01:37:13;;;;;;;15.80;6.22;;;17.90;67.50;;;17.29;54.40;101143.28;5035614;28;20049;-79
2023/06/01 01:39:40;;;;;;;14.45;7.13;;;17.80;67.20;;;17.25;54.44;101144.81;5037264;28;20490;-79
2023/06/01 01:42:09;;;;;;;16.42;6.70;;;17.80;67.50;;;17.20;54.57;101150.91;5023068;28;20403;-80
2023/06/01 01:44:36;;;;;;;15.20;7.13;;;17.80;67.70;;;17.19;54.46;101145.78;5000419;28;20042;-79
2023/06/01 01:47:13;;;;;;;13.38;7.15;;;17.70;67.70;;;17.15;54.73;101142.72;5005427;28;20409;-80
2023/06/01 01:49:45;;;;;;;13.45;7.13;;;17.70;67.80;;;17.12;54.73;101145.88;5022001;28;20044;-79
2023/06/01 01:52:19;;;;;;;13.70;7.10;;;17.70;68.10;;;17.09;54.75;101143.69;4997730;28;20099;-80
2023/06/01 01:54:49;;;;;;;14.75;7.10;;;17.60;68.10;;;17.07;54.61;101150.34;5027495;28;20133;-79
2023/06/01 01:57:19;;;;;;;14.43;8.40;;;17.60;68.00;;;17.05;54.72;101155.16;4999641;28;20107;-79
2023/06/01 01:59:47;;;;;;;18.90;8.13;;;17.50;68.10;;;16.99;54.90;101144.28;5027990;28;20055;-78
2023/06/01 02:02:16;;;;;;;16.67;8.50;;;17.50;68.10;;;16.98;54.84;101147.19;5004404;28;20034;-80
2023/06/01 02:04:45;;;;;;;21.95;9.35;;;17.50;68.20;;;16.92;55.22;101146.28;5012561;28;20053;-78
2023/06/01 02:07:13;;;;;;;17.17;8.70;;;17.40;68.50;;;16.90;55.08;101148.41;5000270;28;20422;-80
2023/06/01 02:09:42;;;;;;;19.02;8.27;;;17.40;68.50;;;16.87;55.42;101145.34;4993142;28;20074;-80
2023/06/01 02:12:12;;;;;;;15.80;8.98;;;17.40;69.00;;;16.82;55.17;101151.44;5027203;28;20033;-79
2023/06/01 02:14:39;;;;;;;16.58;8.98;;;17.30;68.90;;;16.78;55.56;101139.50;5003723;28;20045;-79
2023/06/01 02:17:08;;;;;;;18.75;9.38;;;17.30;69.10;;;16.73;55.48;101142.88;5011683;28;20045;-79
2023/06/01 02:19:36;;;;;;;18.92;8.85;;;17.20;69.10;;;16.69;55.47;101141.72;5021688;28;20044;-79
2023/06/01 02:22:04;;;;;;;19.58;9.60;;;17.20;69.00;;;16.69;55.56;101146.28;5010782;28;20502;-79
2023/06/01 02:24:31;;;;;;;17.90;9.98;;;17.20;69.10;;;16.66;55.64;101144.06;5014954;28;20041;-79
2023/06/01 02:26:58;;;;;;;20.00;10.52;;;17.20;69.40;;;16.62;55.58;101150.94;5022914;28;20084;-80
2023/06/01 02:29:26;;;;;;;14.85;9.38;;;17.10;69.30;;;16.58;55.80;101149.78;5017289;28;20184;-80
2023/06/01 02:31:53;;;;;;;15.57;9.73;;;17.10;69.30;;;16.56;55.70;101154.59;5026405;28;20033;-79
2023/06/01 02:34:20;;;;;;;18.45;9.60;;;17.10;69.70;;;16.52;55.66;101153.41;5010041;28;20060;-78
2023/06/01 02:36:49;;;;;;;20.58;10.57;;;17.10;69.60;;;16.51;55.75;101151.78;5020567;28;20041;-79
2023/06/01 02:39:16;;;;;;;26.13;10.63;;;17.00;69.30;;;16.50;55.69;101150.97;5016935;28;20052;-81
2023/06/01 02:41:44;;;;;;;19.08;9.88;;;17.00;69.20;;;16.48;55.72;101159.25;5005360;28;20046;-79
2023/06/01 02:44:11;;;;;;;21.77;10.85;;;17.00;69.40;;;16.39;55.80;101157.97;5010613;28;20049;-80
2023/06/01 02:46:39;;;;;;;20.38;10.25;;;16.90;69.50;;;16.35;55.86;101156.81;5039926;28;20041;-80
2023/06/01 02:49:07;;;;;;;19.13;10.10;;;16.90;69.90;;;16.29;55.91;101156.91;5029983;28;20140;-80
2023/06/01 02:51:34;;;;;;;22.38;11.30;;;16.80;69.70;;;16.27;55.76;101157.13;5011410;28;20502;-79
2023/06/01 02:54:16;;;;;;;21.60;10.52;;;16.80;69.70;;;16.24;55.89;101162.97;5011640;28;20095;-79
2023/06/01 02:56:43;;;;;;;23.33;11.30;;;16.70;69.80;;;16.17;56.06;101159.59;5015365;28;20041;-80
2023/06/01 02:59:17;;;;;;;17.75;10.40;;;16.70;69.90;;;16.12;55.88;101159.47;5008792;28;20046;-80
2023/06/01 03:01:50;;;;;;;18.38;11.15;;;16.60;70.00;;;16.10;55.96;101156.97;5015037;28;20045;-79
2023/06/01 03:04:17;;;;;;;22.63;11.40;;;16.60;69.90;;;16.09;55.81;101155.34;5006589;28;20049;-80
2023/06/01 03:06:45;;;;;;;20.85;11.85;;;16.60;69.90;;;16.06;56.09;101155.00;5021571;28;20041;-79
2023/06/01 03:09:32;;;;;;;25.27;11.35;;;16.60;70.20;;;16.03;56.21;101160.84;5028315;28;20107;-80
2023/06/01 03:12:35;;;;;;;20.55;11.20;;;16.50;70.20;;;16.01;56.17;101153.00;5001159;28;20509;-79
2023/06/01 03:15:04;;;;;;;18.67;10.98;;;16.50;70.20;;;16.00;56.22;101155.91;5002610;28;20103;-79
2023/06/01 03:17:31;;;;;;;19.73;11.95;;;16.50;70.30;;;15.97;56.41;101151.81;5019677;28;20053;-79
2023/06/01 03:19:58;;;;;;;19.15;11.18;;;16.50;70.70;;;15.93;56.64;101158.69;4998976;28;20060;-79
2023/06/01 03:22:26;;;;;;;22.83;12.73;;;16.50;70.80;;;15.90;56.43;101159.97;5005730;28;20199;-78
2023/06/01 03:24:55;;;;;;;19.13;11.98;;;16.40;70.50;;;15.86;56.68;101156.13;5000716;28;20061;-79
2023/06/01 03:27:27;;;;;;;21.63;12.95;;;16.40;70.70;;;15.85;56.66;101154.44;5019142;28;20049;-79
2023/06/01 03:29:55;;;;;;;22.35;12.55;;;16.40;70.90;;;15.82;56.68;101159.50;5026735;28;20139;-79
2023/06/01 03:32:22;;;;;;;23.48;12.55;;;16.30;71.00;;;15.78;56.93;101164.50;5018513;28;20547;-79
2023/06/01 03:34:51;;;;;;;21.48;13.02;;;16.30;71.10;;;15.69;56.89;101155.09;5009383;28;20045;-78
2023/06/01 03:37:19;;;;;;;25.45;13.50;;;16.20;71.10;;;15.67;57.03;101157.22;5026916;28;20049;-80
2023/06/01 03:39:46;;;;;;;21.00;13.82;;;16.20;71.30;;;15.64;57.34;101173.78;5025148;28;20125;-80
2023/06/01 03:42:15;;;;;;;27.58;14.45;;;16.10;71.70;;;15.59;57.17;101161.00;5011279;28;20045;-79
2023/06/01 03:44:42;;;;;;;21.80;13.32;;;16.00;71.30;;;15.52;57.02;101167.50;5000243;28;20510;-78
2023/06/01 03:47:09;;;;;;;24.27;14.32;;;16.00;71.60;;;15.43;57.26;101167.84;5017533;28;20131;-80
2023/06/01 03:49:38;;;;;;;26.83;14.25;;;15.90;71.80;;;15.36;57.41;101161.69;5011900;28;20056;-79
2023/06/01 03:52:08;;;;;;;25.05;14.50;;;15.90;72.10;;;15.30;57.69;101162.59;5006862;28;20045;-81
2023/06/01 03:54:35;;;;;;;23.92;13.57;;;15.80;72.30;;;15.24;57.63;101162.69;5024479;28;20150;-80
2023/06/01 03:57:05;;;;;;;27.00;14.30;;;15.70;72.40;;;15.20;57.68;101157.75;5008500;28;20580;-78
2023/06/01 03:59:34;;;;;;;23.80;13.68;;;15.70;72.50;;;15.17;57.66;101160.88;5006226;28;20490;-79
2023/06/01 04:02:02;;;;;;;21.08;13.38;;;15.60;72.50;;;15.16;57.73;101170.00;5009522;28;20052;-79
2023/06/01 04:04:30;;;;;;;25.08;15.20;;;15.60;72.50;;;15.14;57.76;101173.97;4997298;28;20042;-80
2023/06/01 04:07:00;;;;;;;26.38;14.73;;;15.60;72.70;;;15.08;57.86;101166.78;5019483;28;20047;-80
2023/06/01 04:09:29;;;;;;;26.83;13.90;;;15.60;72.70;;;15.06;57.85;101172.38;5010355;28;20326;-78
2023/06/01 04:11:57;;;;;;;23.45;13.63;;;15.50;72.90;;;15.01;58.04;101166.03;5011749;28;20057;-81
2023/06/01 04:14:24;;;;;;;22.45;13.52;;;15.50;72.90;;;15.00;57.81;101178.66;5012298;28;20050;-78
2023/06/01 04:16:52;;;;;;;23.15;14.43;;;15.40;72.70;;;14.96;57.83;101174.78;5014637;28;20156;-83
2023/06/01 04:19:20;;;;;;;26.38;13.38;;;15.40;72.70;;;14.93;57.88;101172.53;5013431;28;20073;-83
2023/06/01 04:21:50;;;;;;;22.95;14.30;;;15.40;72.70;;;14.87;57.92;101182.28;5010423;28;20064;-83
2023/06/01 04:24:18;;;;;;;25.17;14.48;;;15.40;72.70;;;14.91;57.86;101174.63;5006573;28;20045;-83
2023/06/01 04:26:45;;;;;;;23.55;13.75;;;15.40;72.70;;;14.91;57.80;101183.50;5013961;28;20506;-83
2023/06/01 04:29:13;;;;;;;23.00;13.85;;;15.40;72.50;;;14.92;57.51;101176.25;5014038;28;20046;-83
2023/06/01 04:31:40;;;;;;;23.80;14.15;;;15.40;72.30;;;14.93;57.32;101178.75;5031064;28;20663;-84
2023/06/01 04:34:09;;;;;;;22.40;13.20;;;15.40;72.20;;;14.96;57.18;101173.97;5014053;28;20055;-83
2023/06/01 04:36:39;;;;;;;24.83;14.05;;;15.40;71.90;;;14.95;56.99;101181.19;5014578;28;20429;-84
2023/06/01 04:39:07;;;;;;;21.45;13.38;;;15.50;71.90;;;14.93;56.87;101181.44;5009514;28;20049;-85
2023/06/01 04:41:36;;;;;;;23.67;13.57;;;15.40;71.70;;;14.93;56.65;101176.06;5005334;28;20046;-83
2023/06/01 04:44:05;;;;;;;23.33;13.18;;;15.40;71.50;;;14.92;56.84;101182.44;5012494;28;20060;-83
2023/06/01 04:46:35;;;;;;;23.13;12.82;;;15.40;71.50;;;14.92;56.53;101192.38;5013892;28;20098;-81
2023/06/01 04:49:02;;;;;;;23.60;13.05;;;15.50;71.20;;;14.92;56.49;101187.81;5011318;28;20049;-82
2023/06/01 04:51:33;;;;;;;24.17;13.68;;;15.50;71.20;;;14.95;56.41;101189.25;5009860;28;20120;-81
2023/06/01 04:54:01;;;;;;;19.83;12.70;;;15.50;71.10;;;14.96;56.20;101190.06;5015315;28;20038;-82
2023/06/01 04:56:29;;;;;;;23.48;13.30;;;15.50;71.10;;;14.95;56.29;101191.94;5003902;28;20041;-81
2023/06/01 04:58:57;;;;;;;21.92;13.48;;;15.40;71.00;;;14.94;56.15;101198.38;5027914;28;20497;-79
2023/06/01 05:01:29;;;;;;;21.88;13.60;;;15.40;70.70;;;14.94;56.08;101193.00;5010645;28;20068;-82
2023/06/01 05:03:57;;;;;;;20.80;13.38;;;15.40;70.70;;;14.93;56.06;101178.75;5000293;28;20042;-81
2023/06/01 05:06:26;;;;;;;27.23;13.65;;;15.40;70.60;;;14.92;55.87;101187.00;5013635;28;20100;-81
2023/06/01 05:08:55;;;;;;;20.98;13.55;;;15.40;70.40;;;14.84;55.92;101182.75;5004797;28;20133;-81
2023/06/01 05:11:23;;;;;;;21.02;12.93;;;15.40;70.50;;;14.83;55.75;101181.09;5005643;28;20050;-83
2023/06/01 05:13:52;;;;;;;23.30;13.43;;;15.30;70.50;;;14.78;56.01;101183.63;5010929;28;20816;-82
2023/06/01 05:16:19;;;;;;;22.52;13.25;;;15.30;70.50;;;14.79;55.82;101176.41;5018241;28;20099;-87
2023/06/01 05:18:48;;;;;;;29.73;13.52;;;15.30;70.60;;;14.79;55.90;101171.03;5009329;28;20040;-79
2023/06/01 05:21:15;;;;;;;19.58;12.40;;;15.20;70.40;;;14.79;56.08;101171.03;5005290;28;20054;-79
2023/06/01 05:23:43;;;;;;;19.75;12.38;;;15.20;70.60;;;14.77;55.81;101176.63;5016230;28;20069;-78
2023/06/01 05:26:11;;;;;;;22.52;12.82;;;15.20;70.50;;;14.73;56.01;101188.00;5007252;28;20113;-80
2023/06/01 05:28:38;;;;;;;20.30;12.75;;;15.20;70.50;;;14.71;55.79;101184.75;5007253;28;20042;-81
2023/06/01 05:31:09;;;;;;;20.30;12.73;;;15.20;70.50;;;14.71;55.69;101180.19;4998434;28;20041;-82
2023/06/01 05:33:42;;;;;;;21.75;12.98;;;15.20;70.30;;;14.70;55.95;101183.94;5009189;28;20052;-83
2023/06/01 05:36:10;;;;;;;22.50;12.35;;;15.20;70.50;;;14.68;55.79;101191.38;5008401;28;20084;-83
2023/06/01 05:38:38;;;;;;;24.05;13.32;;;15.10;70.40;;;14.66;55.60;101186.22;5010040;28;20041;-83
2023/06/01 05:41:06;;;;;;;19.48;12.45;;;15.10;70.30;;;14.65;55.82;101189.13;5004125;28;20140;-82
2023/06/01 05:43:36;;;;;;;22.02;13.60;;;15.10;70.50;;;14.61;56.12;101195.97;5023399;28;20095;-82
2023/06/01 05:46:04;;;;;;;20.05;12.45;;;15.10;70.70;;;14.59;56.15;101192.69;5017102;28;20045;-84
2023/06/01 05:48:32;;;;;;;22.20;13.15;;;15.10;70.80;;;14.57;55.99;101195.59;5013011;28;20068;-83
2023/06/01 05:50:59;;;;;;;21.88;13.02;;;15.10;70.70;;;14.60;56.19;101202.41;4998825;28;20458;-82
2023/06/01 05:53:27;;;;;;;21.15;13.65;;;15.10;71.00;;;14.60;56.16;101202.41;5007998;28;20048;-82
2023/06/01 05:55:55;;;;;;;21.38;12.68;;;15.10;71.00;;;14.62;56.05;101203.00;5006350;28;20767;-83
2023/06/01 05:58:22;;;;;;;19.60;13.05;;;15.10;70.90;;;14.61;56.06;101201.34;5005581;28;20049;-83
2023/06/01 06:00:51;;;;;;;19.80;12.85;;;15.10;70.90;;;14.58;56.05;101196.41;5005910;28;20871;-83
2023/06/01 06:03:18;;;;;;;21.88;12.23;;;15.10;70.90;;;14.59;56.40;101190.84;5031810;28;20064;-81
2023/06/01 06:05:45;;;;;;;24.42;13.07;;;15.10;70.90;;;14.61;56.25;101190.63;5021833;28;20136;-82
2023/06/01 06:08:13;;;;;;;20.98;12.68;;;15.10;71.00;;;14.60;56.14;101194.34;5026560;28;20280;-83
2023/06/01 06:10:41;;;;;;;22.52;12.27;;;15.10;71.10;;;14.61;56.16;101198.66;5018095;28;20120;-83
2023/06/01 06:13:08;;;;;;;21.27;12.02;;;15.10;71.10;;;14.63;56.30;101191.19;5020438;28;20073;-83
2023/06/01 06:15:35;;;;;;;19.40;12.00;;;15.10;70.90;;;14.64;56.09;101196.38;5039092;28;20080;-81
2023/06/01 06:18:04;;;;;;;21.35;11.48;;;15.10;70.90;;;14.65;56.18;101187.28;5031547;28;20045;-83
2023/06/01 06:20:31;;;;;;;20.92;11.82;;;15.20;70.80;;;14.62;55.68;101192.25;5033275;28;20080;-82
2023/06/01 06:22:58;;;;;;;19.38;11.63;;;15.10;70.30;;;14.59;55.66;101193.53;5020349;28;20091;-83
2023/06/01 06:25:26;;;;;;;20.30;10.60;;;15.10;70.40;;;14.61;55.61;101199.47;5028840;28;20045;-82
2023/06/01 06:27:53;;;;;;;21.35;11.73;;;15.10;70.20;;;14.57;55.45;101197.47;5018144;28;20473;-83
2023/06/01 06:30:20;;;;;;;22.25;11.40;;;15.10;70.10;;;14.56;55.49;101195.81;5027606;28;20432;-82
2023/06/01 06:32:48;;;;;;;19.70;11.20;;;15.10;70.10;;;14.53;55.37;101190.88;5031623;28;20044;-81
2023/06/01 06:35:16;;;;;;;19.20;11.10;;;15.00;69.90;;;14.49;55.43;101192.34;5029629;28;20034;-82
2023/06/01 06:37:44;;;;;;;17.00;10.88;;;15.00;70.10;;;14.47;55.84;101199.78;5028386;28;20054;-82
2023/06/01 06:40:12;;;;;;;18.65;10.85;;;15.00;70.60;;;14.49;55.82;101195.84;5042560;28;20049;-82
2023/06/01 06:42:39;;;;;;;20.17;11.10;;;15.00;70.30;;;14.56;55.84;101191.28;5031055;28;20111;-82
2023/06/01 06:45:08;;;;;;;17.88;10.55;;;15.00;70.80;;;14.62;55.62;101195.75;5031272;28;20048;-82
2023/06/01 06:47:35;;;;;;;22.25;11.48;;;15.10;70.50;;;14.67;55.46;101197.78;5022890;28;20525;-83
2023/06/01 06:50:03;;;;;;;20.60;10.93;;;15.10;70.10;;;14.74;55.34;101197.72;5015369;28;20502;-83
2023/06/01 06:52:32;;;;;;;18.23;11.30;;;15.20;70.10;;;14.82;55.67;101200.13;5033696;28;20051;-83
2023/06/01 06:55:00;;;;;;;22.45;12.27;;;15.30;70.60;;;14.85;55.06;101197.00;5031486;28;20086;-82
2023/06/01 06:57:27;;;;;;;16.85;10.45;;;15.30;69.70;;;14.89;55.49;101201.72;5020604;28;20056;-82
2023/06/01 06:59:55;;;;;;;18.58;10.13;;;15.30;70.40;;;14.91;55.29;101196.94;5027927;28;20037;-82
2023/06/01 07:02:22;;;;;;;21.70;10.80;;;15.40;70.00;;;14.96;55.39;101201.63;5031235;28;20041;-81
2023/06/01 07:04:49;;;;;;;20.35;11.40;;;15.40;69.80;;;14.99;54.75;101201.19;5048310;28;20041;-82
2023/06/01 07:07:17;;;;;;;20.80;10.63;;;15.50;69.40;;;15.03;54.91;101202.41;5024187;28;20140;-82
2023/06/01 07:09:46;;;;;;;25.08;10.98;;;15.50;69.60;;;15.05;54.64;101196.81;5036359;28;20071;-82
2023/06/01 07:12:13;;;;;;;21.25;11.07;;;15.50;69.30;;;15.10;55.29;101196.94;5032992;28;20056;-82
2023/06/01 07:14:40;;;;;;;24.17;11.27;;;15.60;70.10;;;15.12;54.89;101203.72;5031540;28;20038;-82
2023/06/01 07:17:08;;;;;;;22.98;10.63;;;15.60;69.50;;;15.15;54.75;101197.09;5038429;28;20073;-81
2023/06/01 07:19:36;;;;;;;24.25;11.02;;;15.60;69.20;;;15.14;54.36;101204.34;5031650;28;20044;-83
2023/06/01 07:22:03;;;;;;;22.42;11.20;;;15.60;68.80;;;15.16;54.49;101202.25;5032732;28;20116;-82
2023/06/01 07:24:30;;;;;;;21.30;10.60;;;15.70;68.80;;;15.23;54.72;101202.19;5024972;28;20065;-83
2023/06/01 07:26:59;;;;;;;17.90;10.48;;;15.70;69.30;;;15.30;54.75;101202.94;5018489;28;20442;-82
2023/06/01 07:29:27;;;;;;;20.50;10.68;;;15.80;69.30;;;15.34;54.21;101201.44;5033413;28;20049;-83
2023/06/01 07:31:55;;;;;;;20.33;10.52;;;15.90;68.60;;;15.36;53.77;101199.31;5029245;28;20064;-81
2023/06/01 07:34:22;;;;;;;18.13;10.43;;;15.90;68.20;;;15.40;53.77;101205.91;5060723;22;20079;-79
2023/06/01 07:36:50;;;;;;;18.33;9.85;;;15.90;68.10;;;15.51;53.22;101208.88;5046479;28;20071;-79
2023/06/01 07:39:17;;;;;;;20.48;10.07;;;16.00;67.50;;;15.64;53.29;101195.31;5044416;28;20045;-79
2023/06/01 07:41:46;;;;;;;19.10;10.13;;;16.10;67.50;;;15.78;52.71;101199.47;5044258;28;20036;-80
2023/06/01 07:44:18;;;;;;;16.70;10.65;;;16.20;66.70;;;15.85;52.08;101202.88;5041472;28;20120;-80
2023/06/01 07:46:46;;;;;;;18.35;11.00;;;16.30;65.90;;;15.99;52.37;101206.22;5028236;28;20516;-79
2023/06/01 07:49:13;;;;;;;22.75;10.32;;;16.40;66.40;;;16.13;52.41;101204.16;5031971;28;20140;-79
2023/06/01 07:51:41;;;;;;;17.15;9.90;;;16.60;66.40;;;16.28;51.89;101195.63;5034753;28;20045;-79
2023/06/01 07:54:08;;;;;;;17.40;9.68;;;16.70;65.90;;;16.35;51.59;101207.13;5048812;28;20059;-79
2023/06/01 07:56:35;;;;;;;24.60;10.57;;;16.80;65.30;;;16.41;51.89;101208.91;5038771;28;20040;-79
2023/06/01 07:59:02;;;;;;;15.45;9.50;;;16.90;65.60;;;16.55;51.21;101214.91;5045958;28;20140;-79
2023/06/01 08:01:32;;;;;;;18.27;10.70;;;17.00;65.00;;;16.63;50.22;101199.19;5042128;28;20047;-79
2023/06/01 08:04:01;;;;;;;17.77;10.27;;;17.10;63.70;;;16.73;50.45;101201.34;5029677;28;20056;-79
2023/06/01 08:06:35;;;;;;;17.75;9.52;;;17.20;64.00;;;16.85;51.18;101196.78;5043967;28;20067;-82
2023/06/01 08:09:03;;;;;;;16.17;10.05;;;17.30;64.90;;;17.02;50.52;101206.84;5030145;28;20076;-82
2023/06/01 08:11:30;;;;;;;20.10;11.30;;;17.50;64.10;;;17.04;49.06;101196.66;5034265;28;20374;-82
2023/06/01 08:13:59;;;;;;;17.88;10.13;;;17.50;62.20;;;17.11;49.62;101200.03;5034333;28;20069;-82
2023/06/01 08:16:27;;;;;;;17.50;10.45;;;17.60;62.80;;;17.25;51.30;101201.41;5031477;28;20053;-82
2023/06/01 08:18:56;;;;;;;20.25;11.20;;;17.70;64.60;;;17.32;49.35;101199.41;5041307;28;20041;-81
2023/06/01 08:21:24;;;;;;;17.92;10.30;;;17.80;62.40;;;17.44;49.09;101202.91;5034275;28;20041;-82
2023/06/01 08:23:52;;;;;;;18.98;10.25;;;17.90;62.10;;;17.54;49.55;101196.06;5046416;28;20044;-81
2023/06/01 08:26:20;;;;;;;19.38;10.27;;;18.00;62.40;;;17.64;49.01;101190.88;5023463;28;20056;-82
2023/06/01 08:28:51;;;;;;;17.95;10.40;;;18.10;61.90;;;17.70;48.01;101188.03;5033839;28;20041;-82
2023/06/01 08:31:19;;;;;;;19.77;10.65;;;18.20;60.80;;;17.73;47.75;101182.19;5033415;28;20051;-81
2023/06/01 08:33:46;;;;;;;19.83;10.82;;;18.20;60.20;;;17.74;48.29;101180.31;5046784;28;20033;-81
2023/06/01 08:36:15;;;;;;;20.00;10.60;;;18.30;60.90;;;17.79;48.76;101177.72;5028870;28;20046;-81
2023/06/01 08:38:42;;;;;;;20.33;10.35;;;18.30;61.40;;;17.89;49.09;101185.16;5030857;28;20255;-81
2023/06/01 08:41:20;;;;;;;18.58;11.43;;;18.40;61.60;;;17.93;47.10;101183.63;5011963;28;20130;-82
2023/06/01 08:43:55;;;;;;;20.70;10.35;;;18.40;59.40;;;17.90;47.93;101181.41;5033907;28;20042;-81
2023/06/01 08:46:23;;;;;;;20.70;11.25;;;18.40;60.30;;;17.92;47.61;101172.03;5031190;28;20063;-81
2023/06/01 08:48:55;;;;;;;25.15;11.25;;;18.40;59.80;;;17.96;48.32;101173.19;5015366;28;20046;-81
2023/06/01 08:51:26;;;;;;;21.42;11.25;;;18.50;60.80;;;17.95;47.62;101170.69;5032344;28;20051;-81
2023/06/01 08:53:57;;;;;;;18.15;10.68;;;18.50;59.80;;;17.99;48.37;101166.47;5034833;28;20110;-81
2023/06/01 08:56:28;;;;;;;23.35;10.55;;;18.50;60.60;;;18.06;49.90;101169.03;5032945;28;20107;-81
2023/06/01 08:58:56;;;;;;;21.58;11.05;;;18.60;62.50;;;18.15;49.12;101156.72;5043322;28;20052;-81
2023/06/01 09:01:25;;;;;;;27.48;11.20;;;18.70;61.40;;;18.13;47.53;101159.69;5036673;28;20669;-81
2023/06/01 09:03:53;;;;;;;20.52;11.38;;;18.60;59.70;;;18.14;47.70;101153.22;5042671;28;20127;-81
2023/06/01 09:06:21;;;;;;;19.35;10.45;;;18.70;59.90;;;18.14;46.81;101144.31;5030146;28;20080;-81
2023/06/01 09:08:49;;;;;;;22.35;10.52;;;18.70;58.60;;;18.18;47.88;101153.56;5014188;28;20637;-81
2023/06/01 09:11:16;;;;;;;24.25;10.10;;;18.70;60.00;;;18.13;47.29;101143.50;5031749;28;20497;-82
2023/06/01 09:13:44;;;;;;;19.83;9.73;;;18.70;59.50;;;18.14;47.23;101142.41;5044084;28;20056;-81
2023/06/01 09:16:11;;;;;;;17.67;10.38;;;18.70;59.10;;;18.19;47.41;101144.38;5030307;28;20505;-81
2023/06/01 09:18:53;;;;;;;21.52;11.95;;;18.70;59.10;;;18.17;46.35;101147.34;5039389;28;20071;-81
2023/06/01 09:21:20;;;;;;;20.02;10.50;;;18.70;57.80;;;18.12;47.16;101141.03;5031036;28;20078;-81
2023/06/01 09:23:49;;;;;;;22.20;11.38;;;18.60;58.90;;;18.19;47.96;101147.09;5041664;28;20840;-81
2023/06/01 09:26:18;;;;;;;20.65;12.55;;;18.70;60.00;;;18.26;47.92;101145.06;5030843;28;20459;-81
2023/06/01 09:28:57;;;;;;;22.88;12.75;;;18.80;59.80;;;18.31;48.27;101134.34;5006119;28;20148;-81
2023/06/01 09:31:40;;;;;;;18.98;12.15;;;18.90;60.10;;;18.36;47.14;101131.72;5028435;28;20417;-81
2023/06/01 09:34:09;;;;;;;23.08;13.25;;;19.00;58.90;;;18.41;46.70;101136.38;5028042;28;20409;-82
2023/06/01 09:36:37;;;;;;;23.60;14.75;;;19.00;58.10;;;18.42;46.86;101128.03;5013164;28;20045;-81
2023/06/01 09:39:08;;;;;;;23.17;14.80;;;19.00;58.20;;;18.43;46.15;101118.84;5029342;28;20536;-80
2023/06/01 09:41:46;;;;;;;;;;;19.00;57.40;;;18.38;46.65;101117.97;5027884;28;20128;-81
2023/06/01 09:44:14;;;;;;;24.42;14.18;;;19.00;58.00;;;18.43;47.42;101120.72;5029816;28;19951;-81
2023/06/01 09:46:48;;;;;;;26.88;15.50;;;19.00;59.00;;;18.43;46.54;101109.94;5029672;28;20398;-81
2023/06/01 09:49:21;;;;;;;28.55;16.45;;;19.00;58.00;;;18.46;48.07;101104.03;5027102;28;20048;-81
2023/06/01 09:51:49;;;;;;;26.80;17.15;;;19.00;59.60;;;18.54;48.48;101111.69;5032415;28;20041;-81
2023/06/01 09:54:28;;;;;;;31.92;18.45;;;19.10;60.30;;;18.56;46.37;101112.28;5039643;28;20077;-81
2023/06/01 09:56:56;;;;;;;26.40;17.38;;;19.20;57.50;;;18.63;45.91;101106.69;5031926;28;20120;-81
2023/06/01 09:59:24;;;;;;;30.33;18.08;;;19.20;57.10;;;18.62;45.01;101105.06;5041316;28;20080;-78
2023/06/01 10:01:53;;;;;;;27.77;19.30;;;19.20;56.20;;;18.64;46.64;101106.47;5030492;28;20067;-79
2023/06/01 10:04:24;;;;;;;31.17;19.67;;;19.20;58.10;;;18.65;46.08;101108.09;5048634;28;20140;-78
2023/06/01 10:06:53;;;;;;;32.67;19.73;;;19.20;57.30;;;18.70;47.25;101108.19;5032759;28;20055;-78
2023/06/01 10:09:22;;;;;;;29.63;20.00;;;19.30;58.90;;;18.78;47.88;101102.34;5029501;28;20037;-78
2023/06/01 10:11:54;;;;;;;31.23;20.25;;;19.40;59.50;;;18.85;48.68;101104.06;5033590;28;20127;-78